Mc Knightstown, Pennsylvania
Current Conditions -  °F | °C
As of 2:53 AM on Sunday 23 Nov 2014 (Local Time) from KRYT Reporting Station
Few Clouds Few Clouds  
Wind Chill:   Ceiling: Unl
Heat Index:   Visibility: 10mi
Dew Point: -7°   Wind: 0mph
Humidity: 41%   Direction: NA
Pressure: 30.15"   Gusts: NA
Location:  39.8752°N, 77.3219°W
Report Text: KRYT 230753Z AUTO 00000KT 10SM FEW100 05/M07 A3015 RMK AO2 SLP220 T00501072 $
Loading
Personal Weather Stations






























Interactive Weather Map New forecast layout! Learn more

10-Day Weather Forecast

Advertisements
Track Severe Weather on mobile